Metar z pełnej godziny Komunikat METAR ze strony awiacja.imgw.pl Metar G00 EPSC METAR EPSC 200400Z 27010KT 9999 BKN016 OVC019 05/03 Q1015 =